Terminal Aerodrome Forecast
Issued by NWS

Home | Current Version | Previous Version | Text Only | Print | Product List | Glossary On
Versions: 1 2 3 4 5 6 7 8 9 10 11 12 13 14 15 16 17 18 19 20 21 22 23
000
FTUS45 KBYZ 210535
TAFLVM
TAF
KLVM 210535Z 2106/2206 24003KT P6SM VCSH FEW070 OVC090
     FM211200 30008KT P6SM VCSH BKN080
     FM211800 05010KT P6SM VCSH SCT060 BKN080
     FM212200 09015G20KT P6SM -RA BKN040 OVC060=

USA.gov is the U.S. government's official web portal to all federal, state and local government web resources and services.